Terminal Aerodrome Forecast
Issued by NWS

Home | Current Version | Previous Version | Text Only | Print | Product List | Glossary On
Versions: 1 2 3 4 5 6 7 8 9 10 11 12 13 14 15 16 17 18
000
FTPQ31 PGUM 211120
TAFGUM
TAF

TAF
PGSN 211120Z 2112/2212 35005KT P6SM VCSH SCT015 BKN110
     FM212300 06013G23KT 6SM SHRA SCT015 BKN030 BKN090=

USA.gov is the U.S. government's official web portal to all federal, state and local government web resources and services.